Time;durP1;ratioP1;P1;durP2;ratioP2;P2;SDS_P1;SDS_P2;PMS_P1;PMS_P2;Temp;Humidity;BMP_temperature;BMP_pressure;BME280_temperature;BME280_humidity;BME280_pressure;Samples;Min_cycle;Max_cycle;Signal;HPM_P1;HPM_P2
2022/08/18 00:00:31;;;;;;;3.30;3.00;;;24.30;62.30;24.70;96025.00;;;;5098554;28;20226;-80
2022/08/18 00:03:05;;;;;;;2.93;2.73;;;24.30;62.60;24.70;96022.00;;;;5097263;28;20235;-81
2022/08/18 00:05:35;;;;;;;3.00;2.77;;;24.30;63.00;24.70;96035.00;;;;5097004;28;20204;-81
2022/08/18 00:08:02;;;;;;;3.30;3.10;;;24.20;63.10;24.70;96043.00;;;;5098135;28;20241;-81
2022/08/18 00:10:30;;;;;;;6.60;3.07;;;24.20;63.20;24.60;96043.00;;;;5098617;28;20220;-81
2022/08/18 00:12:58;;;;;;;3.60;3.30;;;24.10;63.30;24.60;96051.00;;;;5098581;28;20555;-81
2022/08/18 00:15:26;;;;;;;2.87;2.67;;;24.10;63.70;24.60;96056.00;;;;5098605;28;20725;-81
2022/08/18 00:17:53;;;;;;;3.50;3.10;;;24.10;64.00;24.60;96050.00;;;;5097887;28;20215;-81
2022/08/18 00:20:23;;;;;;;3.30;3.00;;;24.10;64.40;24.60;96056.00;;;;5097741;28;20215;-81
2022/08/18 00:22:55;;;;;;;3.40;2.73;;;24.10;64.80;24.70;96067.00;;;;5098116;28;20199;-81
2022/08/18 00:25:23;;;;;;;2.87;2.67;;;24.10;64.90;24.70;96076.00;;;;5098707;28;20219;-83
2022/08/18 00:27:51;;;;;;;3.37;3.07;;;24.10;65.00;24.70;96082.00;;;;5098597;28;20264;-81
2022/08/18 00:30:21;;;;;;;3.17;2.87;;;24.10;65.10;24.70;96083.00;;;;5099501;28;20224;-81
2022/08/18 00:32:55;;;;;;;4.10;2.97;;;24.20;65.50;24.70;96098.00;;;;5122162;27;20198;-82
2022/08/18 00:35:27;;;;;;;3.50;3.20;;;24.10;65.50;24.80;96108.00;;;;5137183;27;20189;-81
2022/08/18 00:38:00;;;;;;;2.83;2.63;;;24.10;65.70;24.80;96111.00;;;;5137073;27;20304;-81
2022/08/18 00:40:32;;;;;;;3.50;3.13;;;24.10;65.90;24.80;96107.00;;;;5136398;27;20210;-81
2022/08/18 00:43:03;;;;;;;3.27;3.07;;;24.20;66.10;24.80;96108.00;;;;5137752;27;20195;-81
2022/08/18 00:45:37;;;;;;;3.33;3.03;;;24.20;66.00;24.80;96101.00;;;;5138304;28;20379;-81
2022/08/18 00:48:06;;;;;;;3.60;3.17;;;24.20;66.10;24.80;96089.00;;;;5138983;28;20222;-81
2022/08/18 00:50:40;;;;;;;3.27;2.93;;;24.20;66.10;24.90;96081.00;;;;5138377;28;20297;-81
2022/08/18 00:53:17;;;;;;;3.00;2.80;;;24.20;66.30;24.90;96072.00;;;;5139611;28;20194;-81
2022/08/18 00:55:47;;;;;;;3.50;3.20;;;24.20;66.60;24.90;96075.00;;;;5137977;28;20711;-81
2022/08/18 00:58:22;;;;;;;7.10;3.30;;;24.20;66.30;24.90;96077.00;;;;5138321;27;20664;-81
2022/08/18 01:00:51;;;;;;;3.03;2.83;;;24.20;66.80;24.90;96079.00;;;;5137155;28;20257;-81
2022/08/18 01:03:23;;;;;;;3.37;3.17;;;24.30;66.60;24.90;96101.00;;;;5137366;28;20207;-81
2022/08/18 01:05:57;;;;;;;4.27;3.17;;;24.30;66.60;25.00;96103.00;;;;5137262;28;20666;-82
2022/08/18 01:08:26;;;;;;;3.43;3.13;;;24.30;66.70;25.00;96090.00;;;;5137592;28;20305;-81
2022/08/18 01:10:55;;;;;;;3.33;3.13;;;24.30;66.70;25.00;96087.00;;;;5137393;28;20279;-81
2022/08/18 01:13:28;;;;;;;3.00;2.80;;;24.30;66.70;25.00;96095.00;;;;5137113;28;20215;-81
2022/08/18 01:15:55;;;;;;;2.93;2.73;;;24.30;67.10;25.00;96094.00;;;;5137676;27;20204;-81
2022/08/18 01:24:08;;;;;;;3.10;2.80;;;24.30;66.80;24.90;96092.00;;;;5143032;27;20302;-81
2022/08/18 01:26:37;;;;;;;3.10;2.77;;;24.30;66.70;24.90;96087.00;;;;5141866;27;20286;-82
2022/08/18 01:29:10;;;;;;;2.97;2.77;;;24.30;66.70;24.90;96081.00;;;;5136240;22;20227;-83
2022/08/18 01:31:41;;;;;;;3.13;2.93;;;24.30;66.70;24.90;96080.00;;;;5097857;28;20211;-83
2022/08/18 01:34:11;;;;;;;3.27;3.07;;;24.30;66.80;24.90;96089.00;;;;5115395;28;20198;-83
2022/08/18 01:36:41;;;;;;;3.17;2.97;;;24.30;66.90;24.90;96083.00;;;;5116020;28;20297;-83
2022/08/18 01:39:12;;;;;;;3.03;2.83;;;24.30;67.20;24.90;96099.00;;;;5115700;28;20303;-83
2022/08/18 01:41:40;;;;;;;3.17;2.97;;;24.30;67.20;24.80;96101.00;;;;5114979;28;20204;-83
2022/08/18 01:44:10;;;;;;;3.37;3.17;;;24.30;67.10;24.80;96111.00;;;;5114859;28;20231;-83
2022/08/18 01:46:41;;;;;;;3.07;2.87;;;24.20;67.00;24.80;96093.00;;;;5114516;28;20222;-83
2022/08/18 01:49:12;;;;;;;3.30;3.10;;;24.30;67.20;24.80;96096.00;;;;5115202;28;20226;-83
2022/08/18 01:51:41;;;;;;;3.27;3.07;;;24.20;67.20;24.80;96083.00;;;;5115715;28;20203;-83
2022/08/18 01:54:14;;;;;;;3.17;2.97;;;24.20;67.20;24.80;96090.00;;;;5115054;28;20195;-83
2022/08/18 01:56:43;;;;;;;3.27;3.07;;;24.20;67.50;24.80;96106.00;;;;5115538;28;20565;-83
2022/08/18 01:59:13;;;;;;;3.57;3.10;;;24.20;67.20;24.70;96112.00;;;;5115375;28;20611;-83
2022/08/18 02:01:43;;;;;;;3.27;3.07;;;24.20;67.30;24.70;96108.00;;;;5112954;28;20214;-83
2022/08/18 02:04:12;;;;;;;3.40;3.20;;;24.20;67.40;24.70;96101.00;;;;5095002;28;20192;-83
2022/08/18 02:06:41;;;;;;;3.03;2.83;;;24.20;67.50;24.70;96102.00;;;;5095580;28;20202;-84
2022/08/18 02:09:09;;;;;;;3.27;3.00;;;24.10;67.60;24.70;96107.00;;;;5095578;28;20578;-83
2022/08/18 02:11:37;;;;;;;3.27;3.00;;;24.10;67.70;24.70;96109.00;;;;5095112;28;20230;-83
2022/08/18 02:14:05;;;;;;;2.77;2.57;;;24.10;67.80;24.60;96122.00;;;;5094888;28;20203;-83
2022/08/18 02:16:33;;;;;;;5.07;3.17;;;24.10;67.80;24.60;96119.00;;;;5094534;28;20199;-83
2022/08/18 02:19:00;;;;;;;4.13;3.70;;;24.00;67.90;24.60;96114.00;;;;5094171;28;20215;-83
2022/08/18 02:21:28;;;;;;;3.27;3.07;;;24.00;68.00;24.60;96094.00;;;;5094141;28;20207;-83
2022/08/18 02:23:55;;;;;;;3.33;3.03;;;24.00;68.00;24.60;96091.00;;;;5094377;28;20671;-84
2022/08/18 02:26:23;;;;;;;3.40;3.10;;;24.00;68.10;24.60;96088.00;;;;5093905;28;20582;-84
2022/08/18 02:28:52;;;;;;;3.10;2.90;;;24.00;68.20;24.60;96082.00;;;;5093780;28;20230;-84
2022/08/18 02:31:23;;;;;;;3.23;3.03;;;24.00;68.30;24.60;96071.00;;;;5095033;28;20203;-83
2022/08/18 02:33:52;;;;;;;3.17;2.97;;;24.00;68.30;24.60;96070.00;;;;5073698;28;20218;-83
2022/08/18 02:36:20;;;;;;;3.83;3.53;;;24.00;68.30;24.60;96088.00;;;;5073827;28;20617;-83
2022/08/18 02:38:48;;;;;;;3.37;3.17;;;23.90;68.30;24.50;96099.00;;;;5074043;28;20224;-83
2022/08/18 02:41:15;;;;;;;3.10;2.90;;;23.90;68.40;24.50;96101.00;;;;5073644;28;20196;-83
2022/08/18 02:43:43;;;;;;;3.90;3.60;;;23.90;68.40;24.40;96096.00;;;;5073690;28;20269;-83
2022/08/18 02:46:11;;;;;;;3.03;2.83;;;23.90;68.60;24.40;96083.00;;;;5073790;28;20665;-84
2022/08/18 02:48:39;;;;;;;3.17;2.97;;;23.90;68.80;24.40;96082.00;;;;5073579;28;20256;-83
2022/08/18 02:51:11;;;;;;;3.20;3.00;;;23.90;68.80;24.40;96086.00;;;;5073534;28;20657;-87
2022/08/18 02:53:41;;;;;;;3.40;3.20;;;23.90;69.00;24.40;96081.00;;;;5075155;28;20609;-87
2022/08/18 02:56:26;;;;;;;3.67;3.37;;;23.80;69.00;24.40;96096.00;;;;5073914;28;20207;-87
2022/08/18 02:58:57;;;;;;;4.10;3.80;;;23.80;69.10;24.40;96091.00;;;;5074844;28;20216;-87
2022/08/18 03:01:31;;;;;;;3.33;3.13;;;23.80;69.10;24.30;96092.00;;;;5074182;28;20232;-87
2022/08/18 03:04:01;;;;;;;4.20;3.90;;;23.80;69.20;24.30;96081.00;;;;5094005;28;20200;-86
2022/08/18 03:06:30;;;;;;;3.80;3.60;;;23.80;69.30;24.30;96082.00;;;;5093081;28;20199;-87
2022/08/18 03:08:57;;;;;;;3.60;3.30;;;23.80;69.40;24.40;96084.00;;;;5092825;28;20227;-87
2022/08/18 03:11:29;;;;;;;3.80;3.50;;;23.80;69.50;24.40;96086.00;;;;5095069;28;20291;-87
2022/08/18 03:13:57;;;;;;;4.10;3.80;;;23.80;69.80;24.40;96082.00;;;;5094068;28;20632;-87
2022/08/18 03:16:27;;;;;;;4.10;3.80;;;23.80;69.70;24.40;96091.00;;;;5094559;28;20202;-87
2022/08/18 03:18:55;;;;;;;4.00;3.70;;;23.80;69.90;24.40;96091.00;;;;5094723;28;20696;-87
2022/08/18 03:21:26;;;;;;;3.50;3.30;;;23.80;69.80;24.40;96081.00;;;;5094803;28;20203;-87
2022/08/18 03:23:55;;;;;;;3.93;3.60;;;23.80;69.90;24.40;96090.00;;;;5094085;28;20195;-87
2022/08/18 03:26:26;;;;;;;3.50;3.30;;;23.80;69.90;24.40;96088.00;;;;5093596;28;20214;-86
2022/08/18 03:28:55;;;;;;;3.60;3.40;;;23.80;69.80;24.40;96090.00;;;;5093037;28;20307;-87
2022/08/18 03:31:26;;;;;;;4.43;3.50;;;23.80;69.90;24.40;96088.00;;;;5093493;28;20206;-87
2022/08/18 03:33:55;;;;;;;3.80;3.50;;;23.80;69.90;24.30;96095.00;;;;5113586;28;20222;-86
2022/08/18 03:36:27;;;;;;;3.40;3.20;;;23.80;69.90;24.30;96089.00;;;;5112575;28;20679;-87
2022/08/18 03:38:55;;;;;;;4.30;3.90;;;23.80;70.00;24.30;96086.00;;;;5112517;28;20215;-87
2022/08/18 03:41:27;;;;;;;3.83;3.60;;;23.80;69.90;24.30;96082.00;;;;5112706;28;20221;-87
2022/08/18 03:43:55;;;;;;;4.07;3.77;;;23.80;70.00;24.40;96078.00;;;;5113311;28;20237;-87
2022/08/18 03:46:23;;;;;;;4.37;4.07;;;23.80;69.90;24.30;96081.00;;;;5113234;28;20195;-87
2022/08/18 03:48:53;;;;;;;5.37;4.03;;;23.80;70.00;24.30;96080.00;;;;5113495;28;20690;-86
2022/08/18 03:51:25;;;;;;;4.67;4.27;;;23.80;70.10;24.30;96083.00;;;;5113363;28;20224;-86
2022/08/18 03:53:55;;;;;;;3.97;3.67;;;23.80;70.10;24.30;96083.00;;;;5113453;28;20229;-87
2022/08/18 03:56:25;;;;;;;4.10;3.80;;;23.80;69.90;24.30;96088.00;;;;5113690;28;20206;-87
2022/08/18 03:58:56;;;;;;;3.70;3.40;;;23.80;69.90;24.30;96083.00;;;;5114081;28;20630;-87
2022/08/18 04:01:28;;;;;;;3.77;3.47;;;23.70;69.80;24.30;96072.00;;;;5113129;28;20233;-87
2022/08/18 04:04:02;;;;;;;4.07;3.77;;;23.70;69.90;24.20;96076.00;;;;5114233;28;20611;-87
2022/08/18 04:06:34;;;;;;;4.03;3.73;;;23.70;70.00;24.20;96071.00;;;;5113293;28;20202;-87
2022/08/18 04:09:07;;;;;;;4.13;3.83;;;23.70;69.90;24.20;96078.00;;;;5112507;28;20230;-87
2022/08/18 04:11:37;;;;;;;3.90;3.60;;;23.70;69.90;24.20;96070.00;;;;5113376;28;20204;-87
2022/08/18 04:14:06;;;;;;;4.30;4.10;;;23.70;69.80;24.10;96068.00;;;;5112386;28;20195;-87
2022/08/18 04:16:40;;;;;;;3.93;3.63;;;23.60;69.70;24.10;96059.00;;;;5112036;28;20195;-87
2022/08/18 04:19:12;;;;;;;3.93;3.73;;;23.60;70.00;24.00;96053.00;;;;5112964;28;20712;-87
2022/08/18 04:21:42;;;;;;;4.70;4.30;;;23.60;69.70;24.00;96049.00;;;;5114900;28;20727;-87
2022/08/18 04:24:13;;;;;;;4.07;3.77;;;23.50;69.60;24.00;96058.00;;;;5112925;28;20715;-87
2022/08/18 04:26:45;;;;;;;3.77;3.47;;;23.50;69.70;24.00;96066.00;;;;5112936;28;20202;-86
2022/08/18 04:29:15;;;;;;;4.73;3.70;;;23.50;69.80;24.00;96074.00;;;;5112104;28;20230;-87
2022/08/18 04:31:43;;;;;;;4.23;3.93;;;23.50;70.00;24.00;96063.00;;;;5112701;28;20289;-87
2022/08/18 04:34:12;;;;;;;4.27;3.87;;;23.40;70.00;24.00;96063.00;;;;5112098;28;20563;-87
2022/08/18 04:36:42;;;;;;;4.10;3.80;;;23.40;70.20;24.00;96073.00;;;;5112490;28;20202;-87
2022/08/18 04:39:12;;;;;;;4.73;4.33;;;23.40;70.10;24.00;96065.00;;;;5112296;28;20232;-87
2022/08/18 04:41:42;;;;;;;3.93;3.63;;;23.40;70.20;24.00;96065.00;;;;5111775;28;20195;-87
2022/08/18 04:44:13;;;;;;;4.33;4.03;;;23.40;70.30;23.90;96059.00;;;;5111962;28;20290;-87
2022/08/18 04:46:46;;;;;;;4.10;3.80;;;23.40;70.30;23.90;96059.00;;;;5113401;28;20211;-87
2022/08/18 04:49:17;;;;;;;3.83;3.60;;;23.30;70.40;23.90;96063.00;;;;5113105;28;20309;-87
2022/08/18 04:53:43;;;;;;;4.23;3.93;;;23.30;70.40;23.90;96060.00;;;;5114528;28;20228;-86
2022/08/18 04:54:39;;;;;;;4.70;4.30;;;23.30;70.30;23.90;96061.00;;;;5117921;28;20209;-87
2022/08/18 04:57:11;;;;;;;3.90;3.60;;;23.30;70.30;23.90;96057.00;;;;5117428;28;20281;-87
2022/08/18 04:59:40;;;;;;;4.43;4.13;;;23.30;70.60;23.80;96056.00;;;;5116508;28;20222;-87
2022/08/18 05:02:09;;;;;;;4.77;4.47;;;23.30;70.50;23.80;96068.00;;;;5116301;28;20638;-87
2022/08/18 05:04:45;;;;;;;6.10;4.30;;;23.20;70.50;23.80;96064.00;;;;5116316;28;20194;-87
2022/08/18 05:07:16;;;;;;;4.00;3.70;;;23.20;70.70;23.70;96063.00;;;;5116534;28;20681;-87
2022/08/18 05:09:43;;;;;;;4.50;4.20;;;23.20;70.60;23.70;96066.00;;;;5115783;28;20757;-87
2022/08/18 05:12:13;;;;;;;4.60;4.20;;;23.20;70.90;23.70;96070.00;;;;5115993;28;20289;-87
2022/08/18 05:14:43;;;;;;;4.53;4.13;;;23.20;70.90;23.80;96077.00;;;;5115402;28;20221;-86
2022/08/18 05:17:11;;;;;;;4.77;4.40;;;23.20;71.00;23.70;96078.00;;;;5115644;28;20622;-87
2022/08/18 05:19:40;;;;;;;4.40;4.10;;;23.20;71.10;23.70;96084.00;;;;5115906;28;20214;-87
2022/08/18 05:22:07;;;;;;;4.17;3.87;;;23.20;71.20;23.70;96088.00;;;;5116369;28;20206;-87
2022/08/18 05:24:35;;;;;;;4.20;3.80;;;23.20;71.20;23.70;96086.00;;;;5115606;28;20228;-87
2022/08/18 05:27:03;;;;;;;4.33;4.03;;;23.20;71.30;23.70;96094.00;;;;5116471;28;20198;-87
2022/08/18 05:29:35;;;;;;;4.33;4.03;;;23.20;71.30;23.70;96091.00;;;;5115594;28;20254;-86
2022/08/18 05:32:06;;;;;;;4.30;4.00;;;23.20;71.30;23.70;96099.00;;;;5116230;28;20203;-87
2022/08/18 05:34:35;;;;;;;4.37;4.07;;;23.20;71.40;23.70;96086.00;;;;5115400;28;20203;-87
2022/08/18 05:37:24;;;;;;;4.20;3.90;;;23.20;71.40;23.70;96085.00;;;;5116049;28;20198;-87
2022/08/18 05:40:01;;;;;;;4.47;4.17;;;23.20;71.90;23.70;96086.00;;;;5115634;28;20223;-87
2022/08/18 05:42:35;;;;;;;4.67;4.27;;;23.20;71.70;23.80;96083.00;;;;5115778;28;20647;-87
2022/08/18 05:45:10;;;;;;;4.43;3.63;;;23.20;71.60;23.80;96090.00;;;;5115615;28;20259;-87
2022/08/18 05:47:38;;;;;;;3.93;3.70;;;23.20;71.60;23.80;96088.00;;;;5115060;28;20639;-87
2022/08/18 05:50:10;;;;;;;4.37;4.07;;;23.20;71.70;23.80;96092.00;;;;5115425;28;20226;-87
2022/08/18 05:52:47;;;;;;;3.90;3.70;;;23.20;71.70;23.90;96104.00;;;;5115881;28;20199;-87
2022/08/18 05:58:15;;;;;;;4.03;3.73;;;23.30;71.90;23.90;96109.00;;;;5116399;28;20197;-87
2022/08/18 06:00:53;;;;;;;4.20;3.90;;;23.30;71.90;23.90;96109.00;;;;5115502;28;20289;-87
2022/08/18 06:03:27;;;;;;;4.10;3.80;;;23.30;72.00;24.00;96105.00;;;;5098013;28;20207;-87
2022/08/18 06:06:00;;;;;;;3.87;3.57;;;23.30;72.10;24.00;96101.00;;;;5095456;28;20249;-87
2022/08/18 06:08:38;;;;;;;4.77;3.90;;;23.40;72.20;24.10;96105.00;;;;5095512;28;20214;-87
2022/08/18 06:11:05;;;;;;;4.00;3.70;;;23.40;72.30;24.10;96124.00;;;;5095112;28;20211;-87
2022/08/18 06:13:41;;;;;;;4.03;3.73;;;23.50;72.10;24.20;96120.00;;;;5094697;28;20540;-87
2022/08/18 06:16:22;;;;;;;3.93;3.73;;;23.50;72.40;24.30;96128.00;;;;5094761;28;20207;-87
2022/08/18 06:19:02;;;;;;;4.67;4.10;;;23.50;72.40;24.30;96141.00;;;;5094256;28;20219;-87
2022/08/18 06:21:47;;;;;;;4.63;3.83;;;23.60;72.50;24.40;96144.00;;;;5094602;28;20195;-87
2022/08/18 06:24:30;;;;;;;4.83;4.03;;;23.60;72.50;24.40;96139.00;;;;5094790;28;20203;-87
2022/08/18 06:27:10;;;;;;;4.63;4.30;;;23.70;72.30;24.50;96145.00;;;;5094774;28;20191;-87
2022/08/18 06:30:04;;;;;;;3.90;3.60;;;23.80;72.30;24.60;96143.00;;;;5094468;28;20227;-87
2022/08/18 06:32:57;;;;;;;3.80;3.60;;;23.80;72.50;24.70;96142.00;;;;5104519;28;20198;-87
2022/08/18 06:35:36;;;;;;;4.47;3.73;;;23.90;72.30;24.80;96131.00;;;;5114562;28;20191;-86
2022/08/18 06:38:38;;;;;;;3.80;3.50;;;24.00;72.00;24.80;96124.00;;;;5115131;28;20256;-86
2022/08/18 06:41:16;;;;;;;3.90;3.60;;;24.00;71.80;24.90;96132.00;;;;5115041;28;20629;-87
2022/08/18 06:44:02;;;;;;;3.63;3.43;;;24.10;71.70;25.00;96134.00;;;;5114763;28;20199;-87
2022/08/18 06:46:41;;;;;;;3.97;3.67;;;24.20;72.00;25.10;96141.00;;;;5115471;28;20603;-87
2022/08/18 06:49:12;;;;;;;4.30;4.00;;;24.30;71.80;25.20;96141.00;;;;5115410;28;20227;-87
2022/08/18 06:51:40;;;;;;;3.90;3.60;;;24.30;71.50;25.30;96147.00;;;;5115191;28;20614;-87
2022/08/18 06:54:27;;;;;;;4.30;3.90;;;24.40;71.50;25.40;96136.00;;;;5115042;28;20605;-87
2022/08/18 06:56:58;;;;;;;3.90;3.60;;;24.50;71.50;25.40;96131.00;;;;5114126;28;20203;-87
2022/08/18 06:59:31;;;;;;;3.60;3.40;;;24.50;71.10;25.50;96127.00;;;;5114468;28;20622;-87
2022/08/18 07:02:11;;;;;;;4.27;3.97;;;24.60;71.10;25.60;96130.00;;;;5108224;28;20207;-86
2022/08/18 07:04:44;;;;;;;3.77;3.53;;;24.70;70.80;25.70;96115.00;;;;5093562;28;20205;-87
2022/08/18 07:07:32;;;;;;;4.80;3.57;;;24.70;70.70;25.70;96108.00;;;;5093998;28;20208;-87
2022/08/18 07:10:00;;;;;;;3.73;3.43;;;24.80;70.60;25.80;96100.00;;;;5094034;28;20223;-87
2022/08/18 07:12:30;;;;;;;3.90;3.70;;;24.90;70.20;25.80;96113.00;;;;5094729;28;20565;-87
2022/08/18 07:15:00;;;;;;;3.70;3.40;;;24.90;70.00;25.90;96106.00;;;;5092929;28;20251;-87
2022/08/18 07:17:32;;;;;;;3.60;3.30;;;25.00;70.00;25.90;96105.00;;;;5094722;28;20230;-86
2022/08/18 07:20:09;;;;;;;4.67;4.17;;;25.00;69.90;26.00;96093.00;;;;5094162;28;20578;-86
2022/08/18 07:22:53;;;;;;;4.03;3.73;;;25.10;69.70;26.00;96083.00;;;;5094130;28;20242;-86
2022/08/18 07:25:26;;;;;;;4.40;3.63;;;25.10;69.30;26.10;96083.00;;;;5093709;28;20308;-86
2022/08/18 07:27:56;;;;;;;4.13;3.83;;;25.20;69.40;26.10;96077.00;;;;5094305;28;20706;-87
2022/08/18 07:30:36;;;;;;;3.73;3.53;;;25.20;69.10;26.10;96093.00;;;;5112239;22;20231;-82
2022/08/18 07:33:18;;;;;;;4.13;3.83;;;25.30;69.10;26.20;96086.00;;;;5101064;28;20205;-81
2022/08/18 07:35:52;;;;;;;4.03;3.57;;;25.30;68.80;26.20;96080.00;;;;5100453;28;20652;-82
2022/08/18 07:38:31;;;;;;;5.27;4.10;;;25.30;68.50;26.20;96071.00;;;;5101077;28;20191;-82
2022/08/18 07:41:14;;;;;;;4.53;4.23;;;25.40;68.50;26.30;96070.00;;;;5099650;28;20203;-82
2022/08/18 07:43:58;;;;;;;4.60;4.20;;;25.40;68.40;26.30;96085.00;;;;5099972;28;20240;-82
2022/08/18 07:46:37;;;;;;;4.17;3.80;;;25.40;68.40;26.40;96094.00;;;;5099722;28;20199;-82
2022/08/18 07:49:05;;;;;;;4.03;3.73;;;25.50;68.40;26.40;96113.00;;;;5099774;28;20219;-82
2022/08/18 07:51:46;;;;;;;3.77;3.57;;;25.50;68.40;26.50;96094.00;;;;5099650;28;20202;-82
2022/08/18 07:54:27;;;;;;;4.20;3.80;;;25.60;68.60;26.60;96086.00;;;;5100064;28;20566;-82
2022/08/18 07:57:07;;;;;;;3.73;3.50;;;25.70;68.30;26.80;96094.00;;;;5099634;28;20191;-82
2022/08/18 07:59:46;;;;;;;3.43;3.23;;;25.70;67.50;26.90;96102.00;;;;5098939;28;20222;-82
2022/08/18 08:02:31;;;;;;;4.20;3.73;;;25.80;67.30;27.10;96108.00;;;;5106227;28;20202;-82
2022/08/18 08:05:15;;;;;;;4.03;3.70;;;26.00;67.50;27.10;96097.00;;;;5121007;28;20208;-82
2022/08/18 08:07:50;;;;;;;4.33;4.03;;;26.10;66.70;27.20;96083.00;;;;5117749;28;20194;-82
2022/08/18 08:10:35;;;;;;;4.27;3.87;;;26.10;66.10;27.20;96089.00;;;;5117969;28;20222;-82
2022/08/18 08:13:19;;;;;;;4.00;3.70;;;26.20;65.90;27.30;96090.00;;;;5117060;28;20194;-82
2022/08/18 08:16:01;;;;;;;3.87;3.57;;;26.30;65.30;27.40;96099.00;;;;5117079;28;20195;-82
2022/08/18 08:18:46;;;;;;;3.87;3.57;;;26.40;65.20;27.50;96093.00;;;;5117585;28;20205;-82
2022/08/18 08:21:19;;;;;;;3.47;3.27;;;26.50;65.00;27.60;96089.00;;;;5117329;28;20198;-82
2022/08/18 08:24:00;;;;;;;3.40;3.10;;;26.60;65.40;27.70;96078.00;;;;5117323;28;20659;-82
2022/08/18 08:26:47;;;;;;;3.40;3.20;;;26.70;65.40;27.80;96090.00;;;;5117684;28;20222;-82
2022/08/18 08:29:33;;;;;;;3.93;3.63;;;26.70;65.20;27.90;96099.00;;;;5117845;28;20226;-82
2022/08/18 08:32:08;;;;;;;3.80;3.50;;;26.80;64.90;28.00;96088.00;;;;5113333;28;20290;-82
2022/08/18 08:34:45;;;;;;;4.07;3.70;;;26.90;64.40;28.10;96089.00;;;;5099037;28;20240;-82
2022/08/18 08:37:19;;;;;;;3.83;3.53;;;27.00;64.00;28.10;96087.00;;;;5098986;28;20195;-82
2022/08/18 08:40:02;;;;;;;3.73;3.43;;;27.10;63.60;28.20;96093.00;;;;5098219;28;20215;-82
2022/08/18 08:42:44;;;;;;;3.70;3.33;;;27.10;63.40;28.30;96085.00;;;;5096012;28;20199;-82
2022/08/18 08:45:18;;;;;;;4.20;3.90;;;27.20;63.50;28.40;96080.00;;;;5095965;28;20195;-82
2022/08/18 08:47:58;;;;;;;3.57;3.37;;;27.30;63.20;28.50;96075.00;;;;5096019;28;20199;-81
2022/08/18 08:50:30;;;;;;;4.00;3.27;;;27.40;63.50;28.70;96070.00;;;;5095760;28;20226;-81
2022/08/18 08:53:06;;;;;;;3.80;3.57;;;27.50;63.10;28.80;96062.00;;;;5095506;28;20225;-81
2022/08/18 08:55:41;;;;;;;3.77;3.50;;;27.60;62.40;28.90;96060.00;;;;5094994;28;20659;-82
2022/08/18 08:58:22;;;;;;;3.70;3.50;;;27.70;61.30;29.00;96058.00;;;;5096419;28;20247;-82
2022/08/18 09:00:52;;;;;;;3.90;3.60;;;27.80;60.50;29.00;96058.00;;;;5095465;28;20238;-81
2022/08/18 09:03:37;;;;;;;4.00;3.57;;;27.90;60.70;29.10;96047.00;;;;5111797;28;20623;-81
2022/08/18 09:06:22;;;;;;;3.60;3.40;;;27.90;59.70;29.10;96046.00;;;;5114522;28;20256;-81
2022/08/18 09:09:24;;;;;;;3.70;3.50;;;28.00;60.10;29.20;96043.00;;;;5116039;28;20257;-81
2022/08/18 09:12:36;;;;;;;3.80;3.50;;;28.00;59.20;29.30;96033.00;;;;5114420;28;20198;-81
2022/08/18 09:15:51;;;;;;;3.60;3.30;;;28.10;59.20;29.40;96046.00;;;;5093728;28;20282;-81
2022/08/18 09:18:51;;;;;;;3.83;3.60;;;28.20;58.80;29.50;96055.00;;;;5075128;28;20248;-81
2022/08/18 09:21:40;;;;;;;3.50;3.30;;;28.30;58.70;29.60;96049.00;;;;5114427;28;20195;-81
2022/08/18 09:24:21;;;;;;;3.50;3.28;;;28.40;59.40;29.80;96051.00;;;;5113970;28;20190;-81
2022/08/18 09:26:53;;;;;;;4.07;3.78;;;28.50;59.10;30.00;96046.00;;;;5114360;28;20658;-81
2022/08/18 09:29:49;;;;;;;4.00;3.67;;;28.60;58.60;30.10;96049.00;;;;5113422;28;20222;-81
2022/08/18 09:32:56;;;;;;;3.28;2.97;;;28.70;58.50;30.30;96050.00;;;;5106036;28;20202;-81
2022/08/18 09:35:57;;;;;;;3.78;3.40;;;28.90;58.40;30.50;96068.00;;;;5094121;28;20547;-82
2022/08/18 09:41:32;;;;;;;4.20;3.90;;;29.20;57.50;30.70;96060.00;;;;5096504;28;20598;-81
2022/08/18 09:44:10;;;;;;;3.67;3.47;;;29.30;56.90;30.80;96066.00;;;;5098309;28;20191;-82
2022/08/18 09:47:01;;;;;;;3.38;3.08;;;29.40;57.20;31.00;96056.00;;;;5098647;28;20639;-82
2022/08/18 09:49:47;;;;;;;4.43;3.50;;;29.60;56.90;31.20;96068.00;;;;5078610;28;20219;-82
2022/08/18 09:52:58;;;;;;;3.10;2.88;;;29.70;56.10;31.40;96068.00;;;;5097981;28;20199;-82
2022/08/18 09:55:57;;;;;;;3.40;3.15;;;29.80;56.40;31.70;96055.00;;;;5097845;28;20206;-82
2022/08/18 09:59:01;;;;;;;3.08;2.88;;;30.00;55.80;32.00;96061.00;;;;5097629;28;20196;-82
2022/08/18 10:04:49;;;;;;;2.92;2.72;;;30.40;55.20;32.50;96040.00;;;;5116909;28;20694;-82
2022/08/18 10:07:30;;;;;;;2.95;2.75;;;30.60;55.00;32.70;96032.00;;;;5093283;28;20202;-82
2022/08/18 10:10:22;;;;;;;3.08;2.88;;;30.70;55.10;32.90;96051.00;;;;5117345;28;20313;-82
2022/08/18 10:13:09;;;;;;;2.97;2.78;;;31.00;54.10;33.00;96055.00;;;;5117957;28;20202;-82
2022/08/18 10:15:57;;;;;;;4.03;2.90;;;31.10;54.40;33.10;96046.00;;;;5117938;28;20243;-82
2022/08/18 10:19:00;;;;;;;3.58;3.30;;;31.30;54.20;33.10;96041.00;;;;5118436;28;20296;-82
2022/08/18 10:21:30;;;;;;;2.88;2.67;;;31.40;53.00;33.10;96049.00;;;;5117304;28;20190;-82
2022/08/18 10:24:13;;;;;;;3.40;3.10;;;31.50;53.70;33.10;96053.00;;;;5118642;28;20228;-82
2022/08/18 10:27:31;;;;;;;3.10;2.80;;;31.50;52.90;33.00;96061.00;;;;5119824;28;20199;-82
2022/08/18 10:29:59;;;;;;;2.72;2.53;;;31.70;52.10;33.00;96061.00;;;;5117819;28;20683;-82
2022/08/18 10:32:46;;;;;;;2.97;2.78;;;31.70;52.90;33.10;96064.00;;;;5108602;28;20223;-82
2022/08/18 10:36:07;;;;;;;3.33;2.83;;;31.80;51.20;33.10;96059.00;;;;5097382;28;20191;-82
2022/08/18 10:38:52;;;;;;;3.70;3.40;;;31.80;51.60;33.10;96056.00;;;;5096302;28;20299;-82
2022/08/18 10:41:31;;;;;;;2.90;2.70;;;31.90;51.30;33.20;96054.00;;;;5098036;28;20221;-82
2022/08/18 10:44:02;;;;;;;3.20;2.85;;;32.00;51.20;33.20;96051.00;;;;5098573;28;20199;-82
2022/08/18 10:46:40;;;;;;;2.92;2.65;;;32.00;51.60;33.20;96060.00;;;;5097760;28;20243;-82
2022/08/18 10:49:24;;;;;;;3.83;3.20;;;32.10;51.50;33.30;96059.00;;;;5097874;28;20609;-82
2022/08/18 10:52:21;;;;;;;3.47;3.25;;;32.20;50.70;33.30;96064.00;;;;5097268;28;20252;-82
2022/08/18 10:55:26;;;;;;;2.92;2.72;;;32.20;50.20;33.10;96051.00;;;;5097707;28;20210;-82
2022/08/18 10:58:42;;;;;;;2.75;2.65;;;32.20;49.80;33.00;96038.00;;;;5097985;28;20195;-82
2022/08/18 11:01:28;;;;;;;2.47;2.38;;;32.20;49.00;32.80;96035.00;;;;5076216;28;20656;-82
2022/08/18 11:04:12;;;;;;;2.75;2.50;;;32.10;48.80;32.70;96033.00;;;;5096572;28;20199;-82
2022/08/18 11:06:47;;;;;;;2.58;2.47;;;32.10;48.80;32.60;96032.00;;;;5097230;28;20222;-82
2022/08/18 11:09:24;;;;;;;2.65;2.53;;;32.00;49.30;32.60;96029.00;;;;5096996;28;20227;-82
2022/08/18 11:11:57;;;;;;;2.97;2.78;;;31.90;49.10;32.50;96027.00;;;;5097218;28;20285;-82
2022/08/18 11:15:05;;;;;;;2.80;2.55;;;31.80;49.20;32.40;96019.00;;;;5095894;28;20260;-82
2022/08/18 11:17:56;;;;;;;2.78;2.58;;;31.70;48.80;32.40;96026.00;;;;5091458;28;20199;-82
2022/08/18 11:20:31;;;;;;;2.70;2.50;;;31.70;49.70;32.30;96032.00;;;;5099284;28;20237;-82
2022/08/18 11:23:01;;;;;;;2.60;2.40;;;31.60;49.30;32.20;96034.00;;;;5099437;28;20202;-82
2022/08/18 11:25:32;;;;;;;3.15;2.95;;;31.50;49.60;32.20;96030.00;;;;5099446;28;20686;-82
2022/08/18 11:28:01;;;;;;;2.80;2.63;;;31.50;49.40;32.20;96022.00;;;;5099090;28;20196;-81
2022/08/18 11:30:37;;;;;;;2.80;2.70;;;31.50;49.50;32.20;96017.00;;;;5099546;28;20270;-82
2022/08/18 11:33:06;;;;;;;3.03;2.80;;;31.40;49.30;32.20;96012.00;;;;5100090;28;20203;-82
2022/08/18 11:35:46;;;;;;;2.95;2.67;;;31.40;49.50;32.20;96007.00;;;;5098510;28;20195;-82
2022/08/18 11:38:18;;;;;;;2.38;2.28;;;31.40;49.70;32.30;96008.00;;;;5098086;28;20241;-82
2022/08/18 11:40:51;;;;;;;3.22;2.22;;;31.40;49.50;32.30;95987.00;;;;5098260;28;20219;-81
2022/08/18 11:43:26;;;;;;;2.65;2.47;;;31.40;49.30;32.30;95982.00;;;;5097746;28;20282;-82
2022/08/18 11:45:58;;;;;;;2.22;2.13;;;31.40;49.40;32.40;95975.00;;;;5096730;28;20195;-82
2022/08/18 11:48:43;;;;;;;4.43;2.28;;;31.40;49.70;32.40;95978.00;;;;5096678;28;20198;-82